sensor_id;sensor_type;location;lat;lon;timestamp;pressure;altitude;pressure_sealevel;temperature;humidity
79242;BME280;68670;48.720;9.118;2023-07-28T00:00:17;96206.44;;;16.32;79.57
79242;BME280;68670;48.720;9.118;2023-07-28T00:02:43;96203.53;;;16.42;79.48
79242;BME280;68670;48.720;9.118;2023-07-28T00:05:11;96197.88;;;16.52;78.49
79242;BME280;68670;48.720;9.118;2023-07-28T00:07:38;96205.63;;;16.50;78.51
79242;BME280;68670;48.720;9.118;2023-07-28T00:10:04;96205.28;;;16.57;77.81
79242;BME280;68670;48.720;9.118;2023-07-28T00:12:29;96208.75;;;16.62;77.54
79242;BME280;68670;48.720;9.118;2023-07-28T00:14:54;96205.38;;;16.70;77.18
79242;BME280;68670;48.720;9.118;2023-07-28T00:17:20;96211.50;;;16.67;77.24
79242;BME280;68670;48.720;9.118;2023-07-28T00:19:47;96208.72;;;16.67;77.11
79242;BME280;68670;48.720;9.118;2023-07-28T00:22:12;96204.84;;;16.68;77.30
79242;BME280;68670;48.720;9.118;2023-07-28T00:24:40;96201.59;;;16.61;77.50
79242;BME280;68670;48.720;9.118;2023-07-28T00:27:06;96214.84;;;16.64;77.60
79242;BME280;68670;48.720;9.118;2023-07-28T00:29:31;96211.50;;;16.67;77.43
79242;BME280;68670;48.720;9.118;2023-07-28T00:31:58;96217.84;;;16.68;77.24
79242;BME280;68670;48.720;9.118;2023-07-28T00:34:28;96213.13;;;16.68;77.38
79242;BME280;68670;48.720;9.118;2023-07-28T00:36:53;96202.13;;;16.63;77.51
79242;BME280;68670;48.720;9.118;2023-07-28T00:39:18;96207.72;;;16.58;77.47
79242;BME280;68670;48.720;9.118;2023-07-28T00:41:46;96206.88;;;16.58;77.74
79242;BME280;68670;48.720;9.118;2023-07-28T00:44:16;96208.69;;;16.49;78.23
79242;BME280;68670;48.720;9.118;2023-07-28T00:46:43;96204.22;;;16.53;78.25
79242;BME280;68670;48.720;9.118;2023-07-28T00:49:08;96206.59;;;16.40;78.83
79242;BME280;68670;48.720;9.118;2023-07-28T00:51:36;96197.19;;;16.41;78.66
79242;BME280;68670;48.720;9.118;2023-07-28T00:54:03;96204.47;;;16.32;79.19
79242;BME280;68670;48.720;9.118;2023-07-28T00:56:32;96204.72;;;16.36;79.16
79242;BME280;68670;48.720;9.118;2023-07-28T00:58:58;96203.06;;;16.35;79.15
79242;BME280;68670;48.720;9.118;2023-07-28T01:01:23;96207.00;;;16.29;79.53
79242;BME280;68670;48.720;9.118;2023-07-28T01:03:50;96202.53;;;16.33;79.45
79242;BME280;68670;48.720;9.118;2023-07-28T01:09:05;96209.34;;;16.22;80.09
79242;BME280;68670;48.720;9.118;2023-07-28T01:11:35;96209.34;;;16.22;80.26
79242;BME280;68670;48.720;9.118;2023-07-28T01:14:00;96212.47;;;16.15;80.59
79242;BME280;68670;48.720;9.118;2023-07-28T01:16:26;96196.75;;;16.10;80.72
79242;BME280;68670;48.720;9.118;2023-07-28T01:18:53;96195.13;;;16.09;80.65
79242;BME280;68670;48.720;9.118;2023-07-28T01:21:25;96201.22;;;16.06;80.83
79242;BME280;68670;48.720;9.118;2023-07-28T01:26:33;96195.56;;;15.93;81.47
79242;BME280;68670;48.720;9.118;2023-07-28T01:29:03;96200.16;;;16.02;81.25
79242;BME280;68670;48.720;9.118;2023-07-28T01:31:29;96199.94;;;15.99;81.49
79242;BME280;68670;48.720;9.118;2023-07-28T01:33:54;96197.69;;;16.01;81.21
79242;BME280;68670;48.720;9.118;2023-07-28T01:36:19;96195.22;;;15.99;81.77
79242;BME280;68670;48.720;9.118;2023-07-28T01:38:45;96197.13;;;16.04;81.29
79242;BME280;68670;48.720;9.118;2023-07-28T01:41:10;96196.88;;;16.00;81.51
79242;BME280;68670;48.720;9.118;2023-07-28T01:43:35;96190.72;;;16.08;81.35
79242;BME280;68670;48.720;9.118;2023-07-28T01:46:01;96190.81;;;16.22;80.91
79242;BME280;68670;48.720;9.118;2023-07-28T01:48:29;96190.00;;;16.22;80.67
79242;BME280;68670;48.720;9.118;2023-07-28T01:50:57;96176.63;;;16.29;80.10
79242;BME280;68670;48.720;9.118;2023-07-28T01:53:24;96177.22;;;16.26;80.25
79242;BME280;68670;48.720;9.118;2023-07-28T01:55:52;96174.44;;;16.26;80.06
79242;BME280;68670;48.720;9.118;2023-07-28T01:58:17;96175.06;;;16.23;80.51
79242;BME280;68670;48.720;9.118;2023-07-28T02:00:42;96171.31;;;16.32;80.21
79242;BME280;68670;48.720;9.118;2023-07-28T02:03:08;96169.44;;;16.28;80.44
79242;BME280;68670;48.720;9.118;2023-07-28T02:05:33;96161.31;;;16.36;80.17
79242;BME280;68670;48.720;9.118;2023-07-28T02:07:58;96158.63;;;16.31;80.20
79242;BME280;68670;48.720;9.118;2023-07-28T02:10:25;96150.19;;;16.23;80.83
79242;BME280;68670;48.720;9.118;2023-07-28T02:12:53;96143.03;;;16.22;81.10
79242;BME280;68670;48.720;9.118;2023-07-28T02:15:18;96150.63;;;16.30;80.41
79242;BME280;68670;48.720;9.118;2023-07-28T02:17:44;96157.38;;;16.24;80.69
79242;BME280;68670;48.720;9.118;2023-07-28T02:20:09;96148.31;;;16.18;80.81
79242;BME280;68670;48.720;9.118;2023-07-28T02:22:38;96152.19;;;16.17;80.94
79242;BME280;68670;48.720;9.118;2023-07-28T02:25:04;96155.50;;;16.19;80.94
79242;BME280;68670;48.720;9.118;2023-07-28T02:27:30;96153.91;;;16.13;81.11
79242;BME280;68670;48.720;9.118;2023-07-28T02:29:57;96157.38;;;16.24;80.91
79242;BME280;68670;48.720;9.118;2023-07-28T02:32:26;96163.72;;;16.24;80.67
79242;BME280;68670;48.720;9.118;2023-07-28T02:34:54;96159.97;;;16.15;81.01
79242;BME280;68670;48.720;9.118;2023-07-28T02:37:20;96170.66;;;16.22;80.92
79242;BME280;68670;48.720;9.118;2023-07-28T02:39:45;96161.84;;;16.20;80.87
79242;BME280;68670;48.720;9.118;2023-07-28T02:42:11;96163.09;;;16.27;80.52
79242;BME280;68670;48.720;9.118;2023-07-28T02:44:37;96177.13;;;16.31;80.37
79242;BME280;68670;48.720;9.118;2023-07-28T02:47:03;96170.50;;;16.32;80.17
79242;BME280;68670;48.720;9.118;2023-07-28T02:49:28;96175.44;;;16.35;80.36
79242;BME280;68670;48.720;9.118;2023-07-28T02:51:55;96178.72;;;16.37;80.08
79242;BME280;68670;48.720;9.118;2023-07-28T02:54:23;96184.94;;;16.48;79.61
79242;BME280;68670;48.720;9.118;2023-07-28T02:56:50;96177.19;;;16.50;79.46
79242;BME280;68670;48.720;9.118;2023-07-28T02:59:22;96182.41;;;16.51;79.21
79242;BME280;68670;48.720;9.118;2023-07-28T03:01:49;96185.59;;;16.58;78.78
79242;BME280;68670;48.720;9.118;2023-07-28T03:04:18;96188.88;;;16.60;78.81
79242;BME280;68670;48.720;9.118;2023-07-28T03:06:44;96197.53;;;16.77;78.01
79242;BME280;68670;48.720;9.118;2023-07-28T03:09:11;96202.41;;;16.86;77.82
79242;BME280;68670;48.720;9.118;2023-07-28T03:11:37;96207.81;;;16.91;77.71
79242;BME280;68670;48.720;9.118;2023-07-28T03:14:04;96206.50;;;16.88;77.54
79242;BME280;68670;48.720;9.118;2023-07-28T03:16:32;96213.34;;;16.91;77.67
79242;BME280;68670;48.720;9.118;2023-07-28T03:18:59;96216.63;;;16.93;77.36
79242;BME280;68670;48.720;9.118;2023-07-28T03:21:29;96208.78;;;17.00;76.98
79242;BME280;68670;48.720;9.118;2023-07-28T03:23:54;96205.94;;;17.05;76.95
79242;BME280;68670;48.720;9.118;2023-07-28T03:26:24;96212.75;;;17.12;76.75
79242;BME280;68670;48.720;9.118;2023-07-28T03:28:49;96208.50;;;17.01;76.57
79242;BME280;68670;48.720;9.118;2023-07-28T03:31:17;96208.03;;;17.13;76.51
79242;BME280;68670;48.720;9.118;2023-07-28T03:33:44;96209.75;;;17.09;76.34
79242;BME280;68670;48.720;9.118;2023-07-28T03:36:12;96223.59;;;17.09;76.49
79242;BME280;68670;48.720;9.118;2023-07-28T03:38:38;96223.59;;;17.09;76.42
79242;BME280;68670;48.720;9.118;2023-07-28T03:41:05;96233.69;;;17.19;76.05
79242;BME280;68670;48.720;9.118;2023-07-28T03:43:32;96240.72;;;17.11;76.54
79242;BME280;68670;48.720;9.118;2023-07-28T03:45:57;96233.63;;;17.05;76.84
79242;BME280;68670;48.720;9.118;2023-07-28T03:48:22;96238.31;;;17.04;76.82
79242;BME280;68670;48.720;9.118;2023-07-28T03:50:48;96239.16;;;17.05;76.69
79242;BME280;68670;48.720;9.118;2023-07-28T03:53:13;96240.34;;;16.99;76.87
79242;BME280;68670;48.720;9.118;2023-07-28T03:55:38;96239.97;;;17.05;76.56
79242;BME280;68670;48.720;9.118;2023-07-28T03:58:04;96226.88;;;17.11;76.08
79242;BME280;68670;48.720;9.118;2023-07-28T04:00:29;96240.72;;;17.11;75.95
79242;BME280;68670;48.720;9.118;2023-07-28T04:02:54;96245.22;;;17.07;76.27
79242;BME280;68670;48.720;9.118;2023-07-28T04:05:20;96251.63;;;17.02;76.69
79242;BME280;68670;48.720;9.118;2023-07-28T04:07:47;96259.72;;;16.99;77.14
79242;BME280;68670;48.720;9.118;2023-07-28T04:10:12;96263.97;;;16.91;77.42
79242;BME280;68670;48.720;9.118;2023-07-28T04:12:38;96256.59;;;16.87;77.54
79242;BME280;68670;48.720;9.118;2023-07-28T04:15:03;96259.72;;;16.80;77.89
79242;BME280;68670;48.720;9.118;2023-07-28T04:17:29;96250.31;;;16.81;77.68
79242;BME280;68670;48.720;9.118;2023-07-28T04:19:56;96252.03;;;16.77;77.88
79242;BME280;68670;48.720;9.118;2023-07-28T04:22:21;96252.78;;;16.83;77.65
79242;BME280;68670;48.720;9.118;2023-07-28T04:24:47;96255.00;;;16.81;78.24
79242;BME280;68670;48.720;9.118;2023-07-28T04:27:13;96245.06;;;16.79;77.67
79242;BME280;68670;48.720;9.118;2023-07-28T04:29:41;96237.72;;;16.70;78.25
79242;BME280;68670;48.720;9.118;2023-07-28T04:32:07;96239.16;;;16.67;78.76
79242;BME280;68670;48.720;9.118;2023-07-28T04:34:34;96242.22;;;16.66;78.74
79242;BME280;68670;48.720;9.118;2023-07-28T04:37:00;96233.13;;;16.60;79.03
79242;BME280;68670;48.720;9.118;2023-07-28T04:39:25;96234.53;;;16.58;79.58
79242;BME280;68670;48.720;9.118;2023-07-28T04:41:53;96227.16;;;16.53;81.40
79242;BME280;68670;48.720;9.118;2023-07-28T04:44:18;96231.13;;;16.47;82.17
79242;BME280;68670;48.720;9.118;2023-07-28T04:46:45;96237.53;;;16.42;81.91
79242;BME280;68670;48.720;9.118;2023-07-28T04:49:13;96235.66;;;16.38;82.10
79242;BME280;68670;48.720;9.118;2023-07-28T04:51:38;96238.66;;;16.41;81.99
79242;BME280;68670;48.720;9.118;2023-07-28T04:54:03;96243.13;;;16.37;83.40
79242;BME280;68670;48.720;9.118;2023-07-28T04:56:31;96239.00;;;16.35;83.96
79242;BME280;68670;48.720;9.118;2023-07-28T04:58:56;96244.00;;;16.33;83.26
79242;BME280;68670;48.720;9.118;2023-07-28T05:01:24;96240.72;;;16.31;83.46
79242;BME280;68670;48.720;9.118;2023-07-28T05:03:52;96234.66;;;16.29;83.90
79242;BME280;68670;48.720;9.118;2023-07-28T05:06:17;96242.94;;;16.29;84.75
79242;BME280;68670;48.720;9.118;2023-07-28T05:08:44;96242.94;;;16.29;84.10
79242;BME280;68670;48.720;9.118;2023-07-28T05:11:12;96243.22;;;16.27;84.99
79242;BME280;68670;48.720;9.118;2023-07-28T05:13:37;96240.25;;;16.24;85.43
79242;BME280;68670;48.720;9.118;2023-07-28T05:16:03;96250.50;;;16.23;86.63
79242;BME280;68670;48.720;9.118;2023-07-28T05:18:28;96252.94;;;16.25;86.10
79242;BME280;68670;48.720;9.118;2023-07-28T05:20:53;96255.69;;;16.25;87.21
79242;BME280;68670;48.720;9.118;2023-07-28T05:23:19;96252.16;;;16.24;88.09
79242;BME280;68670;48.720;9.118;2023-07-28T05:25:47;96266.84;;;16.20;88.89
79242;BME280;68670;48.720;9.118;2023-07-28T05:28:12;96259.06;;;16.22;89.03
79242;BME280;68670;48.720;9.118;2023-07-28T05:30:44;96271.25;;;16.21;90.13
79242;BME280;68670;48.720;9.118;2023-07-28T05:33:12;96267.38;;;16.22;89.07
79242;BME280;68670;48.720;9.118;2023-07-28T05:35:39;96272.91;;;16.22;89.66
79242;BME280;68670;48.720;9.118;2023-07-28T05:38:05;96276.69;;;16.26;89.51
79242;BME280;68670;48.720;9.118;2023-07-28T05:40:33;96272.59;;;16.23;90.43
79242;BME280;68670;48.720;9.118;2023-07-28T05:43:01;96273.72;;;16.22;89.70
79242;BME280;68670;48.720;9.118;2023-07-28T05:45:28;96277.31;;;16.23;89.01
79242;BME280;68670;48.720;9.118;2023-07-28T05:47:53;96284.41;;;16.29;89.69
79242;BME280;68670;48.720;9.118;2023-07-28T05:50:19;96276.03;;;16.34;89.78
79242;BME280;68670;48.720;9.118;2023-07-28T05:52:46;96284.03;;;16.35;89.82
79242;BME280;68670;48.720;9.118;2023-07-28T05:55:12;96280.47;;;16.35;89.94
79242;BME280;68670;48.720;9.118;2023-07-28T05:57:37;96279.56;;;16.39;89.69
79242;BME280;68670;48.720;9.118;2023-07-28T06:00:03;96290.28;;;16.46;89.50
79242;BME280;68670;48.720;9.118;2023-07-28T06:02:34;96286.94;;;16.49;89.33
79242;BME280;68670;48.720;9.118;2023-07-28T06:05:02;96293.00;;;16.51;90.91
79242;BME280;68670;48.720;9.118;2023-07-28T06:07:32;96292.16;;;16.51;92.71
79242;BME280;68670;48.720;9.118;2023-07-28T06:10:02;96295.75;;;16.51;92.73
79242;BME280;68670;48.720;9.118;2023-07-28T06:12:30;96301.28;;;16.51;91.91
79242;BME280;68670;48.720;9.118;2023-07-28T06:14:58;96311.22;;;16.52;93.06
79242;BME280;68670;48.720;9.118;2023-07-28T06:17:25;96301.22;;;16.56;91.87
79242;BME280;68670;48.720;9.118;2023-07-28T06:19:52;96311.75;;;16.54;92.11
79242;BME280;68670;48.720;9.118;2023-07-28T06:22:17;96304.81;;;16.57;92.27
79242;BME280;68670;48.720;9.118;2023-07-28T06:24:43;96295.47;;;16.53;92.56
79242;BME280;68670;48.720;9.118;2023-07-28T06:27:10;96304.03;;;16.51;93.87
79242;BME280;68670;48.720;9.118;2023-07-28T06:29:36;96296.81;;;16.55;93.83
79242;BME280;68670;48.720;9.118;2023-07-28T06:32:01;96307.25;;;16.58;93.31
79242;BME280;68670;48.720;9.118;2023-07-28T06:34:27;96309.94;;;16.63;94.17
79242;BME280;68670;48.720;9.118;2023-07-28T06:36:55;96313.81;;;16.67;93.94
79242;BME280;68670;48.720;9.118;2023-07-28T06:39:21;96310.75;;;16.69;93.99
79242;BME280;68670;48.720;9.118;2023-07-28T06:41:48;96315.41;;;16.73;93.97
79242;BME280;68670;48.720;9.118;2023-07-28T06:44:13;96321.97;;;16.77;93.22
79242;BME280;68670;48.720;9.118;2023-07-28T06:46:43;96330.81;;;16.79;94.29
79242;BME280;68670;48.720;9.118;2023-07-28T06:49:14;96312.81;;;16.82;91.54
79242;BME280;68670;48.720;9.118;2023-07-28T06:51:44;96318.56;;;16.86;92.09
79242;BME280;68670;48.720;9.118;2023-07-28T06:54:10;96321.03;;;16.87;92.34
79242;BME280;68670;48.720;9.118;2023-07-28T06:56:38;96321.84;;;16.88;91.58
79242;BME280;68670;48.720;9.118;2023-07-28T06:59:03;96326.75;;;16.91;91.13
79242;BME280;68670;48.720;9.118;2023-07-28T07:01:28;96328.59;;;17.00;92.77
79242;BME280;68670;48.720;9.118;2023-07-28T07:03:54;96331.50;;;17.09;92.69
79242;BME280;68670;48.720;9.118;2023-07-28T07:06:20;96322.31;;;17.13;93.27
79242;BME280;68670;48.720;9.118;2023-07-28T07:08:45;96334.66;;;17.21;94.61
79242;BME280;68670;48.720;9.118;2023-07-28T07:11:10;96345.63;;;17.26;92.96
79242;BME280;68670;48.720;9.118;2023-07-28T07:13:36;96335.38;;;17.27;93.03
79242;BME280;68670;48.720;9.118;2023-07-28T07:16:01;96347.75;;;17.34;91.32
79242;BME280;68670;48.720;9.118;2023-07-28T07:18:29;96338.84;;;17.37;90.64
79242;BME280;68670;48.720;9.118;2023-07-28T07:21:01;96351.50;;;17.43;88.57
79242;BME280;68670;48.720;9.118;2023-07-28T07:23:28;96351.34;;;17.54;87.54
79242;BME280;68670;48.720;9.118;2023-07-28T07:25:53;96343.75;;;17.59;86.12
79242;BME280;68670;48.720;9.118;2023-07-28T07:28:20;96336.22;;;17.65;86.81
79242;BME280;68670;48.720;9.118;2023-07-28T07:30:49;96345.88;;;17.67;86.71
79242;BME280;68670;48.720;9.118;2023-07-28T07:33:17;96333.81;;;17.77;85.64
79242;BME280;68670;48.720;9.118;2023-07-28T07:35:42;96329.22;;;17.86;86.99
79242;BME280;68670;48.720;9.118;2023-07-28T07:38:08;96326.78;;;17.98;86.62
79242;BME280;68670;48.720;9.118;2023-07-28T07:40:38;96338.53;;;18.09;84.72
79242;BME280;68670;48.720;9.118;2023-07-28T07:43:04;96343.16;;;18.13;84.27
79242;BME280;68670;48.720;9.118;2023-07-28T07:45:32;96346.44;;;18.16;84.53
79242;BME280;68670;48.720;9.118;2023-07-28T07:47:58;96347.25;;;18.16;86.45
79242;BME280;68670;48.720;9.118;2023-07-28T07:50:24;96346.66;;;18.19;85.91
79242;BME280;68670;48.720;9.118;2023-07-28T07:52:50;96347.44;;;18.20;86.56
79242;BME280;68670;48.720;9.118;2023-07-28T07:55:15;96346.84;;;18.23;86.56
79242;BME280;68670;48.720;9.118;2023-07-28T07:57:43;96349.09;;;18.21;86.65
79242;BME280;68670;48.720;9.118;2023-07-28T08:00:10;96362.47;;;18.19;88.41
79242;BME280;68670;48.720;9.118;2023-07-28T08:02:37;96362.66;;;18.22;88.49
79242;BME280;68670;48.720;9.118;2023-07-28T08:05:06;96362.25;;;18.29;87.94
79242;BME280;68670;48.720;9.118;2023-07-28T08:07:31;96368.84;;;18.33;88.31
79242;BME280;68670;48.720;9.118;2023-07-28T08:09:59;96360.34;;;18.43;87.22
79242;BME280;68670;48.720;9.118;2023-07-28T08:12:25;96360.78;;;18.50;86.99
79242;BME280;68670;48.720;9.118;2023-07-28T08:14:50;96371.59;;;18.65;86.19
79242;BME280;68670;48.720;9.118;2023-07-28T08:17:15;96368.81;;;18.79;82.48
79242;BME280;68670;48.720;9.118;2023-07-28T08:19:44;96373.22;;;18.94;83.45
79242;BME280;68670;48.720;9.118;2023-07-28T08:22:09;96370.84;;;19.01;80.56
79242;BME280;68670;48.720;9.118;2023-07-28T08:24:35;96364.16;;;19.16;79.50
79242;BME280;68670;48.720;9.118;2023-07-28T08:27:00;96369.47;;;19.26;80.66
79242;BME280;68670;48.720;9.118;2023-07-28T08:29:26;96373.97;;;19.49;77.60
79242;BME280;68670;48.720;9.118;2023-07-28T08:31:51;96377.97;;;19.57;76.99
79242;BME280;68670;48.720;9.118;2023-07-28T08:34:16;96376.19;;;19.74;75.36
79242;BME280;68670;48.720;9.118;2023-07-28T08:36:46;96383.94;;;19.86;75.85
79242;BME280;68670;48.720;9.118;2023-07-28T08:39:14;96384.91;;;19.82;76.03
79242;BME280;68670;48.720;9.118;2023-07-28T08:41:42;96386.25;;;20.06;73.46
79242;BME280;68670;48.720;9.118;2023-07-28T08:44:08;96389.66;;;20.03;74.31
79242;BME280;68670;48.720;9.118;2023-07-28T08:46:33;96397.09;;;19.94;73.10
79242;BME280;68670;48.720;9.118;2023-07-28T08:49:00;96392.53;;;19.98;73.73
79242;BME280;68670;48.720;9.118;2023-07-28T08:51:26;96395.84;;;20.00;73.46
79242;BME280;68670;48.720;9.118;2023-07-28T08:53:51;96388.63;;;19.99;74.30
79242;BME280;68670;48.720;9.118;2023-07-28T08:56:17;96399.69;;;20.13;72.05
79242;BME280;68670;48.720;9.118;2023-07-28T08:58:45;96400.13;;;20.06;72.47
79242;BME280;68670;48.720;9.118;2023-07-28T09:01:12;96395.84;;;20.00;73.36
79242;BME280;68670;48.720;9.118;2023-07-28T09:03:43;96402.78;;;20.11;71.63
79242;BME280;68670;48.720;9.118;2023-07-28T09:06:11;96403.78;;;20.16;70.36
79242;BME280;68670;48.720;9.118;2023-07-28T09:08:36;96400.56;;;20.00;70.92
79242;BME280;68670;48.720;9.118;2023-07-28T09:11:04;96394.81;;;19.96;70.15
79242;BME280;68670;48.720;9.118;2023-07-28T09:13:40;96410.63;;;20.09;69.15
79242;BME280;68670;48.720;9.118;2023-07-28T09:16:19;96398.22;;;20.16;69.34
79242;BME280;68670;48.720;9.118;2023-07-28T09:18:45;96401.25;;;20.28;69.74
79242;BME280;68670;48.720;9.118;2023-07-28T09:21:20;96396.72;;;20.32;68.80
79242;BME280;68670;48.720;9.118;2023-07-28T09:23:47;96400.41;;;20.41;68.79
79242;BME280;68670;48.720;9.118;2023-07-28T09:26:15;96398.75;;;20.40;70.18
79242;BME280;68670;48.720;9.118;2023-07-28T09:28:41;96392.06;;;20.41;69.89
79242;BME280;68670;48.720;9.118;2023-07-28T09:31:07;96399.59;;;20.40;70.83
79242;BME280;68670;48.720;9.118;2023-07-28T09:33:37;96394.66;;;20.37;70.03
79242;BME280;68670;48.720;9.118;2023-07-28T09:36:26;96404.31;;;20.40;70.53
79242;BME280;68670;48.720;9.118;2023-07-28T09:38:55;96392.75;;;20.47;69.80
79242;BME280;68670;48.720;9.118;2023-07-28T09:41:22;96396.66;;;20.45;70.06
79242;BME280;68670;48.720;9.118;2023-07-28T09:43:47;96391.25;;;20.49;71.12
79242;BME280;68670;48.720;9.118;2023-07-28T09:46:17;96399.47;;;20.54;71.55
79242;BME280;68670;48.720;9.118;2023-07-28T09:48:45;96391.31;;;20.58;70.28
79242;BME280;68670;48.720;9.118;2023-07-28T09:51:18;96394.38;;;20.78;70.57
79242;BME280;68670;48.720;9.118;2023-07-28T09:54:01;96401.66;;;20.97;69.82
79242;BME280;68670;48.720;9.118;2023-07-28T09:56:30;96394.66;;;21.08;69.43
79242;BME280;68670;48.720;9.118;2023-07-28T09:59:01;96391.69;;;21.04;67.23
79242;BME280;68670;48.720;9.118;2023-07-28T10:01:32;96397.22;;;20.96;67.83
79242;BME280;68670;48.720;9.118;2023-07-28T10:03:58;96404.22;;;20.85;68.33
79242;BME280;68670;48.720;9.118;2023-07-28T10:06:26;96398.31;;;20.77;70.07
79242;BME280;68670;48.720;9.118;2023-07-28T10:08:55;96400.78;;;20.79;68.52
79242;BME280;68670;48.720;9.118;2023-07-28T10:11:20;96405.50;;;20.78;69.16
79242;BME280;68670;48.720;9.118;2023-07-28T10:13:46;96408.78;;;20.80;69.59
79242;BME280;68670;48.720;9.118;2023-07-28T10:16:12;96416.31;;;20.80;70.47
79242;BME280;68670;48.720;9.118;2023-07-28T10:18:41;96412.78;;;20.97;65.99
79242;BME280;68670;48.720;9.118;2023-07-28T10:21:10;96413.94;;;20.96;67.79
79242;BME280;68670;48.720;9.118;2023-07-28T10:23:44;96427.91;;;21.13;65.64
79242;BME280;68670;48.720;9.118;2023-07-28T10:26:09;96421.88;;;21.11;63.69
79242;BME280;68670;48.720;9.118;2023-07-28T10:28:38;96423.00;;;21.10;64.14
79242;BME280;68670;48.720;9.118;2023-07-28T10:31:06;96430.22;;;21.11;63.03
79242;BME280;68670;48.720;9.118;2023-07-28T10:33:40;96425.69;;;21.24;63.47
79242;BME280;68670;48.720;9.118;2023-07-28T10:36:14;96424.53;;;21.25;61.18
79242;BME280;68670;48.720;9.118;2023-07-28T10:38:40;96430.75;;;21.22;63.98
79242;BME280;68670;48.720;9.118;2023-07-28T10:41:06;96428.97;;;21.26;62.52
79242;BME280;68670;48.720;9.118;2023-07-28T10:43:35;96430.00;;;21.38;61.28
79242;BME280;68670;48.720;9.118;2023-07-28T10:46:01;96431.81;;;21.43;60.20
79242;BME280;68670;48.720;9.118;2023-07-28T10:48:26;96421.97;;;21.45;61.46
79242;BME280;68670;48.720;9.118;2023-07-28T10:50:52;96421.66;;;21.56;61.17
79242;BME280;68670;48.720;9.118;2023-07-28T10:53:19;96423.16;;;21.79;60.50
79242;BME280;68670;48.720;9.118;2023-07-28T10:55:44;96414.97;;;21.91;61.03
79242;BME280;68670;48.720;9.118;2023-07-28T10:58:12;96423.56;;;22.03;59.49
79242;BME280;68670;48.720;9.118;2023-07-28T11:00:40;96418.28;;;22.10;59.80
79242;BME280;68670;48.720;9.118;2023-07-28T11:03:08;96415.66;;;22.40;60.15
79242;BME280;68670;48.720;9.118;2023-07-28T11:05:35;96420.22;;;22.53;59.67
79242;BME280;68670;48.720;9.118;2023-07-28T11:08:05;96426.09;;;22.69;58.52
79242;BME280;68670;48.720;9.118;2023-07-28T11:10:32;96421.19;;;22.66;57.38
79242;BME280;68670;48.720;9.118;2023-07-28T11:13:05;96419.38;;;22.70;59.36
79242;BME280;68670;48.720;9.118;2023-07-28T11:15:31;96413.56;;;22.75;58.72
79242;BME280;68670;48.720;9.118;2023-07-28T11:17:59;96427.09;;;22.73;58.93
79242;BME280;68670;48.720;9.118;2023-07-28T11:20:28;96428.75;;;22.57;58.19
79242;BME280;68670;48.720;9.118;2023-07-28T11:22:58;96420.34;;;22.65;57.86
79242;BME280;68670;48.720;9.118;2023-07-28T11:25:28;96421.53;;;22.47;57.16
79242;BME280;68670;48.720;9.118;2023-07-28T11:27:56;96427.78;;;22.44;58.70
79242;BME280;68670;48.720;9.118;2023-07-28T11:30:23;96417.59;;;22.48;56.76
79242;BME280;68670;48.720;9.118;2023-07-28T11:32:52;96416.09;;;22.51;56.22
79242;BME280;68670;48.720;9.118;2023-07-28T11:35:22;96420.91;;;22.33;57.96
79242;BME280;68670;48.720;9.118;2023-07-28T11:37:49;96417.63;;;22.31;59.53
79242;BME280;68670;48.720;9.118;2023-07-28T11:40:20;96419.94;;;22.29;59.33
79242;BME280;68670;48.720;9.118;2023-07-28T11:42:51;96425.00;;;22.18;58.17
79242;BME280;68670;48.720;9.118;2023-07-28T11:45:18;96428.78;;;22.13;56.51
79242;BME280;68670;48.720;9.118;2023-07-28T11:48:01;96435.81;;;21.94;55.18
79242;BME280;68670;48.720;9.118;2023-07-28T11:50:37;96434.66;;;21.69;56.97
79242;BME280;68670;48.720;9.118;2023-07-28T11:53:03;96434.94;;;21.41;58.89
79242;BME280;68670;48.720;9.118;2023-07-28T11:55:29;96435.88;;;21.28;59.59
79242;BME280;68670;48.720;9.118;2023-07-28T11:57:54;96445.38;;;20.96;61.77
79242;BME280;68670;48.720;9.118;2023-07-28T12:00:30;96457.91;;;20.76;62.98
79242;BME280;68670;48.720;9.118;2023-07-28T12:03:06;96450.19;;;20.51;65.39
79242;BME280;68670;48.720;9.118;2023-07-28T12:05:35;96447.91;;;20.31;67.34
79242;BME280;68670;48.720;9.118;2023-07-28T12:08:01;96444.75;;;20.24;68.60
79242;BME280;68670;48.720;9.118;2023-07-28T12:10:28;96444.53;;;20.20;69.14
79242;BME280;68670;48.720;9.118;2023-07-28T12:12:54;96444.34;;;20.17;69.71
79242;BME280;68670;48.720;9.118;2023-07-28T12:15:22;96447.00;;;20.22;70.99
79242;BME280;68670;48.720;9.118;2023-07-28T12:18:09;96446.13;;;20.35;72.29
79242;BME280;68670;48.720;9.118;2023-07-28T12:23:07;96424.75;;;20.66;68.92
79242;BME280;68670;48.720;9.118;2023-07-28T12:25:34;96429.41;;;20.79;68.16
79242;BME280;68670;48.720;9.118;2023-07-28T12:28:03;96425.38;;;20.94;68.08
79242;BME280;68670;48.720;9.118;2023-07-28T12:30:29;96431.19;;;21.15;68.26
79242;BME280;68670;48.720;9.118;2023-07-28T12:32:54;96433.56;;;21.30;67.74
79242;BME280;68670;48.720;9.118;2023-07-28T12:35:22;96425.09;;;21.53;68.58
79242;BME280;68670;48.720;9.118;2023-07-28T12:37:49;96428.25;;;21.77;66.07
79242;BME280;68670;48.720;9.118;2023-07-28T12:40:15;96428.78;;;22.13;64.96
79242;BME280;68670;48.720;9.118;2023-07-28T12:42:40;96419.44;;;22.35;62.58
79242;BME280;68670;48.720;9.118;2023-07-28T12:45:06;96422.88;;;22.41;63.25
79242;BME280;68670;48.720;9.118;2023-07-28T12:47:31;96423.22;;;22.39;60.20
79242;BME280;68670;48.720;9.118;2023-07-28T12:49:59;96424.84;;;22.32;60.52
79242;BME280;68670;48.720;9.118;2023-07-28T12:52:24;96432.72;;;22.30;61.64
79242;BME280;68670;48.720;9.118;2023-07-28T12:54:50;96429.59;;;22.14;60.75
79242;BME280;68670;48.720;9.118;2023-07-28T12:57:17;96423.56;;;22.03;60.66
79242;BME280;68670;48.720;9.118;2023-07-28T12:59:43;96426.13;;;21.91;61.20
79242;BME280;68670;48.720;9.118;2023-07-28T13:02:08;96427.09;;;21.78;61.79
79242;BME280;68670;48.720;9.118;2023-07-28T13:04:33;96428.75;;;21.79;62.73
79242;BME280;68670;48.720;9.118;2023-07-28T13:07:01;96432.22;;;21.76;63.79